Time;durP1;ratioP1;P1;durP2;ratioP2;P2;SDS_P1;SDS_P2;PMS_P1;PMS_P2;Temp;Humidity;BMP_temperature;BMP_pressure;BME280_temperature;BME280_humidity;BME280_pressure;Samples;Min_cycle;Max_cycle;Signal;HPM_P1;HPM_P2
2022/04/12 00:01:40;;;;;;;11.18;7.43;;;7.50;79.00;;;;;;5117051;27;20043;-79
2022/04/12 00:04:06;;;;;;;11.60;7.82;;;7.50;78.70;;;;;;5099844;27;20539;-79
2022/04/12 00:06:32;;;;;;;9.93;7.32;;;7.50;78.90;;;;;;5100091;27;20031;-79
2022/04/12 00:08:58;;;;;;;11.57;8.07;;;7.50;78.80;;;;;;5116645;27;20129;-79
2022/04/12 00:11:25;;;;;;;11.50;8.18;;;7.50;78.70;;;;;;5116333;27;20505;-79
2022/04/12 00:13:50;;;;;;;12.55;8.75;;;7.50;78.70;;;;;;5082683;27;20051;-80
2022/04/12 00:16:16;;;;;;;11.40;8.25;;;7.40;78.40;;;;;;5099537;27;20536;-79
2022/04/12 00:21:26;;;;;;;12.10;9.07;;;7.30;78.50;;;;;;5116334;27;20054;-79
2022/04/12 00:23:52;;;;;;;11.23;8.45;;;7.40;78.50;;;;;;5116220;27;20035;-79
2022/04/12 00:26:17;;;;;;;12.63;8.80;;;7.30;78.60;;;;;;5099280;27;20085;-79
2022/04/12 00:28:43;;;;;;;9.25;8.25;;;7.20;78.80;;;;;;5116417;27;20399;-80
2022/04/12 00:31:09;;;;;;;12.73;8.88;;;7.20;78.90;;;;;;5082198;27;20036;-79
2022/04/12 00:33:35;;;;;;;13.32;9.85;;;7.20;78.70;;;;;;5116423;27;20027;-79
2022/04/12 00:36:02;;;;;;;13.25;8.63;;;7.20;78.70;;;;;;5099073;27;20072;-79
2022/04/12 00:38:33;;;;;;;13.75;9.02;;;7.10;78.70;;;;;;5116072;27;20039;-79
2022/04/12 00:41:00;;;;;;;14.27;9.40;;;7.10;78.60;;;;;;5098800;27;20050;-79
2022/04/12 00:43:32;;;;;;;13.75;9.52;;;7.10;78.60;;;;;;5115918;27;20039;-79
2022/04/12 00:46:00;;;;;;;12.75;8.75;;;7.10;78.60;;;;;;5115839;27;20126;-79
2022/04/12 00:48:27;;;;;;;11.60;7.35;;;7.10;78.80;;;;;;5099187;27;20134;-79
2022/04/12 00:50:54;;;;;;;10.98;9.15;;;7.10;78.60;;;;;;5098653;27;20475;-79
2022/04/12 00:53:20;;;;;;;10.68;8.60;;;7.10;78.60;;;;;;5115840;27;20502;-79
2022/04/12 00:55:46;;;;;;;11.70;8.88;;;7.00;78.50;;;;;;5098762;27;20035;-76
2022/04/12 00:58:12;;;;;;;12.48;10.18;;;7.00;78.60;;;;;;5115699;27;20031;-77
2022/04/12 01:00:38;;;;;;;12.07;8.85;;;7.00;78.60;;;;;;5115807;27;20099;-76
2022/04/12 01:03:04;;;;;;;10.98;8.70;;;7.00;78.60;;;;;;5115843;27;20506;-76
2022/04/12 01:05:30;;;;;;;11.35;8.45;;;7.00;78.60;;;;;;5115669;27;20046;-77
2022/04/12 01:07:56;;;;;;;12.38;9.10;;;7.00;78.60;;;;;;5115792;28;20043;-77
2022/04/12 01:10:23;;;;;;;11.40;7.75;;;6.90;78.60;;;;;;5115644;27;20372;-77
2022/04/12 01:12:52;;;;;;;12.65;8.75;;;7.00;78.50;;;;;;5098326;28;20051;-76
2022/04/12 01:15:21;;;;;;;12.80;9.02;;;7.00;78.50;;;;;;5115514;28;20031;-77
2022/04/12 01:17:48;;;;;;;11.77;8.57;;;6.90;78.60;;;;;;5115816;28;20031;-77
2022/04/12 01:20:17;;;;;;;10.95;8.18;;;6.90;78.60;;;;;;5098574;28;20086;-77
2022/04/12 01:22:55;;;;;;;14.77;9.20;;;6.80;78.70;;;;;;5115480;28;20127;-77
2022/04/12 01:25:22;;;;;;;11.43;8.48;;;6.80;78.50;;;;;;5115739;28;20403;-76
2022/04/12 01:27:48;;;;;;;13.23;8.45;;;6.80;78.50;;;;;;5098659;28;20036;-77
2022/04/12 01:30:14;;;;;;;13.63;9.60;;;6.80;78.30;;;;;;5098540;28;20456;-77
2022/04/12 01:32:40;;;;;;;13.13;9.02;;;6.70;78.30;;;;;;5115329;28;20091;-76
2022/04/12 01:35:06;;;;;;;11.88;9.55;;;6.80;78.40;;;;;;5098738;28;20035;-77
2022/04/12 01:37:32;;;;;;;12.32;9.75;;;6.70;78.30;;;;;;5115289;28;20502;-76
2022/04/12 01:40:00;;;;;;;11.60;8.45;;;6.70;78.30;;;;;;5098151;28;20035;-77
2022/04/12 01:42:26;;;;;;;12.48;9.32;;;6.70;78.50;;;;;;5115246;28;20395;-76
2022/04/12 01:44:52;;;;;;;11.95;9.52;;;6.70;78.30;;;;;;5098564;28;20039;-77
2022/04/12 01:47:17;;;;;;;14.65;10.02;;;6.60;78.40;;;;;;5115510;28;20035;-76
2022/04/12 01:49:44;;;;;;;13.32;7.85;;;6.60;78.20;;;;;;5115453;28;20043;-76
2022/04/12 01:52:10;;;;;;;14.23;8.93;;;6.60;78.30;;;;;;5115343;27;20046;-77
2022/04/12 01:54:36;;;;;;;14.15;9.95;;;6.60;78.10;;;;;;5085619;27;20031;-77
2022/04/12 01:57:02;;;;;;;15.32;9.27;;;6.60;77.90;;;;;;5119156;27;20046;-77
2022/04/12 01:59:28;;;;;;;12.63;9.38;;;6.60;77.80;;;;;;5119034;27;20035;-76
2022/04/12 02:01:54;;;;;;;13.25;9.60;;;6.60;77.70;;;;;;5119050;27;20440;-76
2022/04/12 02:04:20;;;;;;;13.93;9.35;;;6.60;77.90;;;;;;5101973;27;20043;-77
2022/04/12 02:06:45;;;;;;;11.45;9.10;;;6.60;77.80;;;;;;5118869;27;20035;-76
2022/04/12 02:09:11;;;;;;;12.88;9.13;;;6.60;77.80;;;;;;5101813;27;20049;-77
2022/04/12 02:11:37;;;;;;;15.38;9.50;;;6.60;77.90;;;;;;5101483;27;20040;-76
2022/04/12 02:14:02;;;;;;;10.45;8.63;;;6.50;77.70;;;;;;5101721;27;20061;-76
2022/04/12 02:16:28;;;;;;;12.68;9.73;;;6.50;77.70;;;;;;5101867;27;20509;-76
2022/04/12 02:18:54;;;;;;;16.30;8.98;;;6.50;77.70;;;;;;5118736;27;20032;-77
2022/04/12 02:21:19;;;;;;;12.07;9.55;;;6.50;77.80;;;;;;5118858;27;20050;-76
2022/04/12 02:23:45;;;;;;;13.30;9.40;;;6.50;77.90;;;;;;5101580;27;20498;-76
2022/04/12 02:26:11;;;;;;;14.35;9.40;;;6.50;77.80;;;;;;5118639;27;20039;-76
2022/04/12 02:28:36;;;;;;;16.27;10.18;;;6.50;77.80;;;;;;5118860;27;20142;-76
2022/04/12 02:31:02;;;;;;;11.57;9.50;;;6.50;77.90;;;;;;5084321;27;20510;-76
2022/04/12 02:33:28;;;;;;;12.93;9.68;;;6.50;78.00;;;;;;5118471;27;20130;-76
2022/04/12 02:35:54;;;;;;;13.43;9.25;;;6.50;78.00;;;;;;5101421;27;20051;-76
2022/04/12 02:38:20;;;;;;;12.40;9.07;;;6.40;78.20;;;;;;5084754;27;20047;-76
2022/04/12 02:40:46;;;;;;;12.38;9.57;;;6.40;78.50;;;;;;5118190;27;20050;-77
2022/04/12 02:43:11;;;;;;;13.02;8.73;;;6.30;78.70;;;;;;5101291;27;20043;-77
2022/04/12 02:45:40;;;;;;;10.80;8.20;;;6.30;78.80;;;;;;5118693;27;20049;-77
2022/04/12 02:48:08;;;;;;;11.88;9.38;;;6.30;78.70;;;;;;5118243;27;20463;-77
2022/04/12 02:50:34;;;;;;;15.68;10.57;;;6.30;78.80;;;;;;5084660;27;20039;-77
2022/04/12 02:53:00;;;;;;;12.68;9.70;;;6.30;79.00;;;;;;5117962;27;20046;-76
2022/04/12 02:55:26;;;;;;;13.43;9.13;;;6.30;78.90;;;;;;5100980;27;20035;-77
2022/04/12 02:57:51;;;;;;;12.70;9.43;;;6.30;78.80;;;;;;5118004;27;20035;-77
2022/04/12 03:00:17;;;;;;;12.45;9.73;;;6.30;78.80;;;;;;5101008;27;20035;-76
2022/04/12 03:02:43;;;;;;;11.68;8.32;;;6.30;78.80;;;;;;5101273;27;20391;-77
2022/04/12 03:05:10;;;;;;;14.68;10.23;;;6.30;78.80;;;;;;5117482;27;20039;-76
2022/04/12 03:07:35;;;;;;;14.00;9.82;;;6.20;78.90;;;;;;5117709;27;20043;-76
2022/04/12 03:10:02;;;;;;;14.85;10.40;;;6.30;79.20;;;;;;5117551;27;20046;-76
2022/04/12 03:12:28;;;;;;;13.93;10.18;;;6.20;79.50;;;;;;5117452;27;20059;-76
2022/04/12 03:14:53;;;;;;;12.88;10.32;;;6.20;79.60;;;;;;5117874;27;20042;-76
2022/04/12 03:17:20;;;;;;;13.50;10.73;;;6.10;79.70;;;;;;5100926;27;20502;-76
2022/04/12 03:19:47;;;;;;;12.88;10.00;;;6.10;79.80;;;;;;5117432;27;20035;-76
2022/04/12 03:22:13;;;;;;;14.45;9.48;;;6.10;80.00;;;;;;5117330;27;20039;-76
2022/04/12 03:24:38;;;;;;;13.63;10.90;;;6.10;79.80;;;;;;5117370;27;20035;-77
2022/04/12 03:27:05;;;;;;;14.32;10.77;;;6.10;79.80;;;;;;5100432;27;20050;-77
2022/04/12 03:29:30;;;;;;;16.45;9.65;;;6.10;79.70;;;;;;5100446;27;20475;-77
2022/04/12 03:31:56;;;;;;;13.88;10.57;;;6.10;79.50;;;;;;5117257;27;20041;-76
2022/04/12 03:34:22;;;;;;;13.68;10.13;;;6.00;79.90;;;;;;5117263;27;20425;-76
2022/04/12 03:36:48;;;;;;;15.98;10.77;;;6.00;80.10;;;;;;5117193;27;20080;-76
2022/04/12 03:39:17;;;;;;;11.95;9.38;;;6.00;79.70;;;;;;5100075;27;20043;-76
2022/04/12 03:41:47;;;;;;;16.63;11.48;;;5.90;79.70;;;;;;5117051;27;20043;-77
2022/04/12 03:44:14;;;;;;;11.38;9.32;;;5.90;80.40;;;;;;5117153;27;20479;-76
2022/04/12 03:46:40;;;;;;;13.63;10.18;;;5.90;80.40;;;;;;5117045;27;20615;-76
2022/04/12 03:49:06;;;;;;;17.30;10.93;;;5.90;80.30;;;;;;5116940;27;20043;-77
2022/04/12 03:51:31;;;;;;;15.10;10.30;;;6.00;80.30;;;;;;5116750;27;20043;-76
2022/04/12 03:53:57;;;;;;;13.90;10.27;;;6.00;80.20;;;;;;5100102;27;20039;-76
2022/04/12 03:56:23;;;;;;;14.10;10.88;;;6.00;80.00;;;;;;5117101;27;20043;-76
2022/04/12 03:58:48;;;;;;;15.45;10.73;;;6.00;80.00;;;;;;5116820;27;20043;-76
2022/04/12 04:01:14;;;;;;;15.57;11.88;;;6.10;79.80;;;;;;5099886;27;20045;-76
2022/04/12 04:03:40;;;;;;;14.50;9.88;;;6.00;79.90;;;;;;5116489;27;20509;-76
2022/04/12 04:06:06;;;;;;;14.77;11.38;;;6.10;79.70;;;;;;5116862;27;20191;-77
2022/04/12 04:08:32;;;;;;;14.85;11.15;;;6.10;79.70;;;;;;5116546;27;20491;-77
2022/04/12 04:11:00;;;;;;;13.40;10.65;;;6.10;79.40;;;;;;5099616;27;20049;-76
2022/04/12 04:13:29;;;;;;;13.38;11.50;;;6.10;79.20;;;;;;5116368;27;20603;-77
2022/04/12 04:15:56;;;;;;;13.32;10.30;;;6.10;79.20;;;;;;5116051;27;20031;-77
2022/04/12 04:18:22;;;;;;;15.45;11.57;;;6.10;79.10;;;;;;5099311;27;20031;-77
2022/04/12 04:20:48;;;;;;;16.25;11.25;;;6.10;79.00;;;;;;5099557;27;20043;-77
2022/04/12 04:23:14;;;;;;;14.57;10.60;;;6.10;78.90;;;;;;5116228;27;20376;-76
2022/04/12 04:25:39;;;;;;;12.02;9.63;;;6.20;79.00;;;;;;5116305;27;20070;-76
2022/04/12 04:28:11;;;;;;;16.65;11.05;;;6.10;79.00;;;;;;5116118;27;20070;-76
2022/04/12 04:30:38;;;;;;;15.20;11.05;;;6.10;79.00;;;;;;5116133;27;20039;-76
2022/04/12 04:33:06;;;;;;;15.15;10.18;;;6.10;79.20;;;;;;5116009;27;20483;-76
2022/04/12 04:35:31;;;;;;;15.23;11.50;;;6.10;79.30;;;;;;5116127;27;20035;-76
2022/04/12 04:37:57;;;;;;;14.02;12.35;;;6.10;79.40;;;;;;5099139;27;20050;-76
2022/04/12 04:40:23;;;;;;;15.27;11.80;;;6.00;79.20;;;;;;5098855;27;20050;-76
2022/04/12 04:42:51;;;;;;;16.33;11.02;;;6.00;79.10;;;;;;5116231;27;20035;-76
2022/04/12 04:45:17;;;;;;;16.33;10.70;;;6.10;79.00;;;;;;5115822;27;20043;-76
2022/04/12 04:47:50;;;;;;;14.30;11.02;;;6.00;79.00;;;;;;5098614;27;20054;-76
2022/04/12 04:50:21;;;;;;;13.53;11.67;;;6.10;79.00;;;;;;5098542;27;20040;-76
2022/04/12 04:52:47;;;;;;;14.43;11.07;;;6.10;78.80;;;;;;5115529;27;20054;-77
2022/04/12 04:55:14;;;;;;;14.98;10.60;;;6.10;78.80;;;;;;5098888;27;20027;-76
2022/04/12 04:57:44;;;;;;;14.43;10.82;;;6.10;78.60;;;;;;5098743;27;20035;-76
2022/04/12 05:00:15;;;;;;;14.57;10.85;;;6.10;78.70;;;;;;5115623;28;20046;-76
2022/04/12 05:02:50;;;;;;;15.35;11.18;;;6.10;78.80;;;;;;5115956;27;20031;-76
2022/04/12 05:05:16;;;;;;;17.63;11.20;;;6.10;78.90;;;;;;5116143;27;20046;-76
2022/04/12 05:07:45;;;;;;;18.27;11.90;;;6.10;79.10;;;;;;5098649;27;20088;-76
2022/04/12 05:10:15;;;;;;;15.18;10.73;;;6.10;79.00;;;;;;5115474;27;20035;-76
2022/04/12 05:12:40;;;;;;;15.27;10.70;;;6.10;78.90;;;;;;5115215;28;20055;-76
2022/04/12 05:15:07;;;;;;;14.70;11.20;;;6.10;79.00;;;;;;5115755;28;20120;-76
2022/04/12 05:17:32;;;;;;;14.68;12.40;;;6.10;79.10;;;;;;5098636;28;20544;-76
2022/04/12 05:19:58;;;;;;;15.80;11.82;;;6.10;79.20;;;;;;5115363;28;20035;-76
2022/04/12 05:22:27;;;;;;;14.70;11.52;;;6.10;79.20;;;;;;5115473;28;20058;-76
2022/04/12 05:24:53;;;;;;;13.98;11.50;;;6.10;79.30;;;;;;5115641;28;20453;-75
2022/04/12 05:27:21;;;;;;;13.70;10.95;;;6.10;79.20;;;;;;5117625;27;20035;-77
2022/04/12 05:29:47;;;;;;;16.55;12.02;;;6.10;79.10;;;;;;5102904;27;20073;-76
2022/04/12 05:32:13;;;;;;;14.63;10.90;;;6.10;79.10;;;;;;5119495;27;20045;-76
2022/04/12 05:34:40;;;;;;;17.77;11.57;;;6.20;79.10;;;;;;5102615;27;20035;-76
2022/04/12 05:37:05;;;;;;;15.57;12.07;;;6.30;79.00;;;;;;5102792;27;20039;-76
2022/04/12 05:39:31;;;;;;;16.27;11.27;;;6.20;79.10;;;;;;5102761;27;20046;-76
2022/04/12 05:42:00;;;;;;;15.18;11.60;;;6.30;79.30;;;;;;5119697;27;20509;-76
2022/04/12 05:44:29;;;;;;;18.10;12.80;;;6.30;79.20;;;;;;5102366;27;20038;-78
2022/04/12 05:46:55;;;;;;;14.45;11.55;;;6.30;79.10;;;;;;5085902;27;20047;-78
2022/04/12 05:49:21;;;;;;;19.02;11.35;;;6.30;79.00;;;;;;5102377;27;20440;-78
2022/04/12 05:51:47;;;;;;;14.05;11.05;;;6.40;78.90;;;;;;5102150;27;20050;-78
2022/04/12 05:54:13;;;;;;;18.70;11.85;;;6.50;78.80;;;;;;5102490;27;20057;-78
2022/04/12 05:56:39;;;;;;;15.68;11.70;;;6.50;78.80;;;;;;5085509;27;20484;-79
2022/04/12 05:59:06;;;;;;;13.75;10.82;;;6.50;78.60;;;;;;5119052;27;20035;-78
2022/04/12 06:01:32;;;;;;;14.13;11.30;;;6.60;78.50;;;;;;5102241;27;20505;-78
2022/04/12 06:03:57;;;;;;;15.52;10.80;;;6.60;78.60;;;;;;5085064;27;20076;-78
2022/04/12 06:06:23;;;;;;;16.33;9.52;;;6.70;78.50;;;;;;5085418;27;20132;-78
2022/04/12 06:08:49;;;;;;;16.08;10.85;;;6.70;78.50;;;;;;5119007;27;20045;-78
2022/04/12 06:11:15;;;;;;;16.55;11.45;;;6.80;78.40;;;;;;5118608;27;20054;-77
2022/04/12 06:13:40;;;;;;;13.68;11.30;;;6.90;77.80;;;;;;5098136;27;20405;-77
2022/04/12 06:16:06;;;;;;;15.77;11.43;;;7.00;77.80;;;;;;5084923;27;20092;-77
2022/04/12 06:18:32;;;;;;;12.95;9.95;;;7.10;77.60;;;;;;5098979;27;20042;-77
2022/04/12 06:20:58;;;;;;;14.20;10.05;;;7.10;77.40;;;;;;5101166;27;20040;-77
2022/04/12 06:23:23;;;;;;;14.35;10.40;;;7.10;77.40;;;;;;5067428;27;20515;-77
2022/04/12 06:25:49;;;;;;;14.75;10.85;;;7.20;77.30;;;;;;5099413;27;20054;-78
2022/04/12 06:28:15;;;;;;;16.35;11.18;;;7.20;77.00;;;;;;5081945;27;20131;-78
2022/04/12 06:30:40;;;;;;;16.05;10.63;;;7.30;77.20;;;;;;5097278;27;20676;-78
2022/04/12 06:33:06;;;;;;;17.33;10.98;;;7.30;77.10;;;;;;5102447;27;20481;-78
2022/04/12 06:35:32;;;;;;;18.83;10.65;;;7.30;77.10;;;;;;5098488;27;20052;-78
2022/04/12 06:37:57;;;;;;;16.40;10.40;;;7.40;77.00;;;;;;5099299;28;20510;-77
2022/04/12 06:40:24;;;;;;;14.50;10.57;;;7.40;77.00;;;;;;5082622;27;20042;-78
2022/04/12 06:42:51;;;;;;;14.80;10.00;;;7.50;76.90;;;;;;5086259;27;20031;-77
2022/04/12 06:45:18;;;;;;;12.13;9.75;;;7.50;76.80;;;;;;5097648;27;20043;-80
2022/04/12 06:47:43;;;;;;;14.50;10.20;;;7.50;76.10;;;;;;5094887;27;20496;-80
2022/04/12 06:50:11;;;;;;;13.93;10.48;;;7.50;76.10;;;;;;5087232;27;20054;-80
2022/04/12 06:52:37;;;;;;;13.48;10.25;;;7.60;75.60;;;;;;5082276;27;20043;-79
2022/04/12 06:55:04;;;;;;;14.60;10.25;;;7.60;75.90;;;;;;5098761;27;20122;-80
2022/04/12 06:57:32;;;;;;;11.07;8.52;;;7.70;75.90;;;;;;5096174;27;20046;-79
2022/04/12 06:59:57;;;;;;;13.77;9.77;;;7.70;75.80;;;;;;5099712;27;20043;-79
2022/04/12 07:02:23;;;;;;;11.55;9.82;;;7.80;75.50;;;;;;5099929;27;20476;-80
2022/04/12 07:04:49;;;;;;;13.23;10.50;;;8.00;75.40;;;;;;5063801;27;20046;-79
2022/04/12 07:07:14;;;;;;;11.73;9.30;;;8.10;75.30;;;;;;5064640;27;20497;-79
2022/04/12 07:09:40;;;;;;;11.40;9.55;;;8.20;75.20;;;;;;5099167;27;20505;-79
2022/04/12 07:12:06;;;;;;;13.43;8.77;;;8.30;75.20;;;;;;5077076;28;20466;-79
2022/04/12 07:14:33;;;;;;;11.90;9.52;;;8.50;74.60;;;;;;5072858;28;20051;-80
2022/04/12 07:16:59;;;;;;;12.60;9.77;;;8.70;74.40;;;;;;5078498;28;20047;-79
2022/04/12 07:19:25;;;;;;;13.10;9.70;;;8.80;72.80;;;;;;5061743;28;20050;-80
2022/04/12 07:21:52;;;;;;;14.35;9.95;;;8.90;72.50;;;;;;5091778;28;20072;-80
2022/04/12 07:24:17;;;;;;;14.27;10.90;;;9.00;71.30;;;;;;5078292;28;20566;-79
2022/04/12 07:26:43;;;;;;;12.77;9.20;;;9.10;71.30;;;;;;5094445;28;20047;-79
2022/04/12 07:29:09;;;;;;;11.98;10.00;;;9.20;72.40;;;;;;5092201;28;20048;-79
2022/04/12 07:31:35;;;;;;;15.07;10.18;;;9.30;72.00;;;;;;5077704;28;20135;-79
2022/04/12 07:34:01;;;;;;;14.15;8.95;;;9.40;71.90;;;;;;5094068;28;20036;-80
2022/04/12 07:36:26;;;;;;;12.38;9.13;;;9.50;71.20;;;;;;5074590;28;20454;-79
2022/04/12 07:38:52;;;;;;;13.07;9.15;;;9.60;71.50;;;;;;5080330;28;20040;-80
2022/04/12 07:41:19;;;;;;;14.82;10.13;;;9.70;69.10;;;;;;5092670;28;20048;-79
2022/04/12 07:43:46;;;;;;;12.38;9.82;;;9.80;70.50;;;;;;5094518;28;20058;-80
2022/04/12 07:46:13;;;;;;;12.68;10.02;;;9.90;70.40;;;;;;5097714;28;20097;-80
2022/04/12 07:48:40;;;;;;;12.48;9.30;;;10.00;70.80;;;;;;5097157;28;20051;-80
2022/04/12 07:51:06;;;;;;;15.13;11.18;;;10.10;70.60;;;;;;5092331;28;20109;-80
2022/04/12 07:53:32;;;;;;;13.05;9.30;;;10.20;69.40;;;;;;5095039;28;20047;-80
2022/04/12 07:55:57;;;;;;;15.95;9.60;;;10.20;69.40;;;;;;5076127;28;20040;-79
2022/04/12 07:58:23;;;;;;;10.98;9.07;;;10.30;69.30;;;;;;5091721;28;20040;-80
2022/04/12 08:00:49;;;;;;;15.13;9.63;;;10.40;68.30;;;;;;5075008;28;20039;-79
2022/04/12 08:03:20;;;;;;;10.68;8.48;;;10.50;68.60;;;;;;5099876;28;20095;-80
2022/04/12 08:05:50;;;;;;;14.60;10.40;;;10.60;68.70;;;;;;5075838;28;20412;-79
2022/04/12 08:08:15;;;;;;;11.13;8.73;;;10.80;67.50;;;;;;5093562;28;20051;-80
2022/04/12 08:10:44;;;;;;;12.55;8.75;;;10.90;68.40;;;;;;5078514;28;20047;-80
2022/04/12 08:13:10;;;;;;;11.38;9.00;;;11.00;67.60;;;;;;5100299;28;20063;-81
2022/04/12 08:15:37;;;;;;;12.90;9.13;;;11.00;66.60;;;;;;5094437;28;20052;-80
2022/04/12 08:18:06;;;;;;;10.73;8.88;;;11.10;67.40;;;;;;5058974;28;20074;-82
2022/04/12 08:20:32;;;;;;;11.93;8.48;;;11.10;66.90;;;;;;5078387;28;20050;-80
2022/04/12 08:22:58;;;;;;;10.80;8.35;;;11.30;66.30;;;;;;5092422;28;20039;-78
2022/04/12 08:25:25;;;;;;;12.77;9.25;;;11.40;66.50;;;;;;5093764;28;20039;-78
2022/04/12 08:27:51;;;;;;;11.90;7.82;;;11.50;65.20;;;;;;5095861;28;20064;-80
2022/04/12 08:30:17;;;;;;;11.68;9.13;;;11.50;65.90;;;;;;5076602;28;20539;-80
2022/04/12 08:32:43;;;;;;;13.98;8.75;;;11.50;66.40;;;;;;5092614;28;20044;-81
2022/04/12 08:35:09;;;;;;;11.57;9.57;;;11.60;67.20;;;;;;5092609;28;20485;-80
2022/04/12 08:37:35;;;;;;;13.98;9.18;;;11.70;64.60;;;;;;5094172;28;20052;-80
2022/04/12 08:40:01;;;;;;;12.60;9.48;;;11.90;62.90;;;;;;5081588;28;20038;-80
2022/04/12 08:42:27;;;;;;;11.38;8.98;;;11.90;64.20;;;;;;5059641;28;20054;-80
2022/04/12 08:44:53;;;;;;;13.70;9.27;;;12.00;65.00;;;;;;5075350;28;20039;-80
2022/04/12 08:47:22;;;;;;;14.23;9.23;;;12.10;64.00;;;;;;5094920;28;20043;-80
2022/04/12 08:49:48;;;;;;;10.98;9.07;;;12.20;64.30;;;;;;5076229;28;20067;-81
2022/04/12 08:52:14;;;;;;;12.30;8.82;;;12.30;64.70;;;;;;5096394;28;20507;-80
2022/04/12 08:54:44;;;;;;;10.73;8.05;;;12.50;62.80;;;;;;5094128;28;20048;-81
2022/04/12 08:57:11;;;;;;;10.55;7.82;;;12.60;63.90;;;;;;5094111;28;20595;-80
2022/04/12 08:59:37;;;;;;;10.18;8.73;;;12.70;63.80;;;;;;5077621;28;20624;-81
2022/04/12 09:02:07;;;;;;;13.85;8.90;;;12.80;63.90;;;;;;5074311;28;20652;-81
2022/04/12 09:04:33;;;;;;;11.05;8.75;;;13.00;63.10;;;;;;5090818;28;20047;-79
2022/04/12 09:07:00;;;;;;;12.45;8.57;;;13.10;61.50;;;;;;5095338;28;20042;-80
2022/04/12 09:09:30;;;;;;;10.77;8.00;;;13.20;62.20;;;;;;5086756;28;20094;-79
2022/04/12 09:12:23;;;;;;;13.43;8.07;;;13.30;61.60;;;;;;5097497;27;20043;-81
2022/04/12 09:14:52;;;;;;;13.07;8.40;;;13.40;59.10;;;;;;5089705;28;20543;-81
2022/04/12 09:17:35;;;;;;;13.30;8.55;;;13.50;59.00;;;;;;5063519;28;20054;-80
2022/04/12 09:20:10;;;;;;;11.18;8.68;;;13.50;60.40;;;;;;5078367;28;20050;-80
2022/04/12 09:22:37;;;;;;;11.65;9.20;;;13.70;60.40;;;;;;5095579;28;20043;-81
2022/04/12 09:25:04;;;;;;;14.07;8.40;;;13.80;59.50;;;;;;5093639;28;20035;-80
2022/04/12 09:27:33;;;;;;;10.27;8.15;;;14.00;60.00;;;;;;5063293;28;20040;-80
2022/04/12 09:30:01;;;;;;;10.70;8.27;;;14.10;60.60;;;;;;5077908;28;20031;-80
2022/04/12 09:32:30;;;;;;;11.00;8.63;;;14.20;61.60;;;;;;5099707;28;20080;-80
2022/04/12 09:34:57;;;;;;;11.88;8.82;;;14.50;61.50;;;;;;5080327;28;20039;-80
2022/04/12 09:37:28;;;;;;;11.98;9.05;;;14.60;61.70;;;;;;5077066;28;20043;-80
2022/04/12 09:39:59;;;;;;;11.05;7.95;;;14.80;60.40;;;;;;5094819;28;20046;-81
2022/04/12 09:43:02;;;;;;;11.38;8.10;;;14.90;59.70;;;;;;5076826;28;20105;-81
2022/04/12 09:45:30;;;;;;;14.07;8.57;;;14.90;59.10;;;;;;5077097;28;20499;-82
2022/04/12 09:48:04;;;;;;;11.00;7.97;;;15.00;58.50;;;;;;5094827;28;20063;-82
2022/04/12 09:50:31;;;;;;;12.18;8.23;;;15.10;59.20;;;;;;5060294;28;20071;-81
2022/04/12 09:53:09;;;;;;;16.90;10.07;;;15.20;59.10;;;;;;5094866;28;20040;-82
2022/04/12 09:55:47;;;;;;;15.32;8.27;;;15.20;57.20;;;;;;5078286;28;20040;-82
2022/04/12 09:58:21;;;;;;;11.65;8.80;;;15.40;59.30;;;;;;5078063;28;20043;-81
2022/04/12 10:00:47;;;;;;;12.93;8.20;;;15.60;58.30;;;;;;5077875;28;20495;-82
2022/04/12 10:03:15;;;;;;;10.98;8.40;;;15.80;58.80;;;;;;5078172;28;20051;-81
2022/04/12 10:05:43;;;;;;;9.18;7.82;;;16.00;59.20;;;;;;5094769;28;20051;-81
2022/04/12 10:08:15;;;;;;;12.25;8.15;;;16.20;57.30;;;;;;5094747;28;20386;-81
2022/04/12 10:10:42;;;;;;;10.95;9.23;;;16.30;56.90;;;;;;5094503;28;20043;-82
2022/04/12 10:13:10;;;;;;;12.05;9.43;;;16.30;55.90;;;;;;5094761;28;20063;-82
2022/04/12 10:15:37;;;;;;;10.70;8.68;;;16.40;55.80;;;;;;5081361;28;20071;-82
2022/04/12 10:18:04;;;;;;;9.65;8.18;;;16.50;56.20;;;;;;5081692;28;20430;-82
2022/04/12 10:20:30;;;;;;;11.20;8.45;;;16.50;55.70;;;;;;5098298;28;20039;-82
2022/04/12 10:22:57;;;;;;;12.55;8.88;;;16.60;55.70;;;;;;5081419;28;20538;-82
2022/04/12 10:25:24;;;;;;;12.95;8.75;;;16.80;56.80;;;;;;5098141;28;20561;-82
2022/04/12 10:27:53;;;;;;;12.32;10.18;;;16.80;53.60;;;;;;5081665;28;20387;-82
2022/04/12 10:30:18;;;;;;;9.75;7.65;;;17.00;53.90;;;;;;5097801;28;20047;-82
2022/04/12 10:33:09;;;;;;;10.13;8.20;;;17.00;54.70;;;;;;5098022;28;20036;-82
2022/04/12 10:35:44;;;;;;;12.05;8.23;;;17.20;53.00;;;;;;5098054;28;20087;-82
2022/04/12 10:38:15;;;;;;;11.57;9.43;;;17.20;52.40;;;;;;5097923;28;20038;-82
2022/04/12 10:40:45;;;;;;;10.32;7.65;;;17.20;54.10;;;;;;5098095;28;20062;-82
2022/04/12 10:43:20;;;;;;;11.02;8.88;;;17.30;54.40;;;;;;5081278;28;20050;-82
2022/04/12 10:45:48;;;;;;;9.70;8.65;;;17.20;53.80;;;;;;5082318;28;20080;-82
2022/04/12 10:48:28;;;;;;;10.02;8.82;;;17.30;53.90;;;;;;5081196;28;20066;-82
2022/04/12 10:50:58;;;;;;;11.43;8.30;;;17.40;53.80;;;;;;5080641;28;20078;-82
2022/04/12 10:53:39;;;;;;;12.07;8.52;;;17.50;54.20;;;;;;5097610;28;20039;-82
2022/04/12 10:56:06;;;;;;;11.45;7.45;;;17.60;53.20;;;;;;5097701;28;20042;-83
2022/04/12 10:58:35;;;;;;;10.60;7.53;;;17.60;53.60;;;;;;5080624;28;20048;-82
2022/04/12 11:01:01;;;;;;;12.70;8.85;;;17.70;54.00;;;;;;5080851;28;20040;-82
2022/04/12 11:03:45;;;;;;;12.02;7.97;;;17.90;53.80;;;;;;5080868;28;20045;-82
2022/04/12 11:06:13;;;;;;;11.60;7.88;;;18.00;49.30;;;;;;5097705;28;20078;-82
2022/04/12 11:08:48;;;;;;;12.52;8.40;;;18.10;52.40;;;;;;5080859;28;20402;-83
2022/04/12 11:11:21;;;;;;;10.27;7.40;;;18.20;49.60;;;;;;5080321;28;20040;-82
2022/04/12 11:13:49;;;;;;;13.95;8.38;;;18.20;51.50;;;;;;5097278;28;20055;-82
2022/04/12 11:16:18;;;;;;;11.70;7.90;;;18.30;52.30;;;;;;5097734;28;20384;-82
2022/04/12 11:18:50;;;;;;;11.32;7.50;;;18.40;52.50;;;;;;5097249;28;20038;-82
2022/04/12 11:21:18;;;;;;;10.75;7.35;;;18.40;49.70;;;;;;5097055;28;20050;-83
2022/04/12 11:23:51;;;;;;;10.13;8.00;;;18.40;50.80;;;;;;5097056;28;20043;-82
2022/04/12 11:26:45;;;;;;;12.35;8.25;;;18.40;50.70;;;;;;5097005;28;20054;-83
2022/04/12 11:29:22;;;;;;;10.05;7.53;;;18.40;50.30;;;;;;5094894;28;20047;-83
2022/04/12 11:31:56;;;;;;;9.70;8.10;;;18.40;50.60;;;;;;5096907;28;20046;-82
2022/04/12 11:34:27;;;;;;;13.77;9.38;;;18.50;51.40;;;;;;5080597;28;20176;-82
2022/04/12 11:37:01;;;;;;;10.73;8.25;;;18.50;51.20;;;;;;5097169;28;20040;-82
2022/04/12 11:39:28;;;;;;;;;;;18.30;51.10;;;;;;5097548;28;20039;-82
2022/04/12 11:41:59;;;;;;;11.60;7.90;;;18.30;50.70;;;;;;5097102;28;19915;-82
2022/04/12 11:44:25;;;;;;;10.00;7.95;;;18.20;51.30;;;;;;5096656;28;20046;-82
2022/04/12 11:47:01;;;;;;;11.40;8.95;;;18.20;50.90;;;;;;5079955;28;20077;-82
2022/04/12 11:49:32;;;;;;;8.93;7.70;;;18.10;51.30;;;;;;5096661;28;20047;-82
2022/04/12 11:52:02;;;;;;;11.05;8.90;;;18.10;52.50;;;;;;5096616;28;20039;-82
2022/04/12 11:54:33;;;;;;;9.70;7.47;;;18.10;52.90;;;;;;5079930;28;20117;-82
2022/04/12 11:57:07;;;;;;;9.85;7.93;;;18.20;53.00;;;;;;5096647;28;20501;-82
2022/04/12 11:59:44;;;;;;;11.77;8.10;;;18.20;52.40;;;;;;5096399;28;20038;-82
2022/04/12 12:02:11;;;;;;;9.65;8.25;;;18.30;52.70;;;;;;5096271;28;20046;-82
2022/04/12 12:04:47;;;;;;;10.63;8.30;;;18.20;51.40;;;;;;5096297;28;20078;-82
2022/04/12 12:07:14;;;;;;;10.45;7.72;;;18.30;52.80;;;;;;5079434;28;20050;-82
2022/04/12 12:09:59;;;;;;;8.60;7.50;;;18.30;53.40;;;;;;5096148;28;20126;-82
2022/04/12 12:12:38;;;;;;;11.88;8.02;;;18.30;52.70;;;;;;5078956;28;20060;-82
2022/04/12 12:15:24;;;;;;;9.38;7.45;;;18.30;52.70;;;;;;5095956;28;20055;-82
2022/04/12 12:17:56;;;;;;;9.57;7.80;;;18.20;52.70;;;;;;5079663;28;20035;-82
2022/04/12 12:20:24;;;;;;;10.88;7.47;;;18.10;53.70;;;;;;5096235;28;20075;-82
2022/04/12 12:22:52;;;;;;;11.85;8.23;;;18.00;54.10;;;;;;5095988;28;20084;-82
2022/04/12 12:25:23;;;;;;;12.57;7.43;;;18.10;54.50;;;;;;5096275;28;20510;-82
2022/04/12 12:27:54;;;;;;;9.65;7.20;;;18.20;54.40;;;;;;5063386;28;20090;-82
2022/04/12 12:30:24;;;;;;;16.73;7.82;;;18.20;54.20;;;;;;5078682;28;20039;-82
2022/04/12 12:32:54;;;;;;;10.40;7.13;;;18.10;54.00;;;;;;5095831;28;20045;-82
2022/04/12 12:35:26;;;;;;;10.13;7.28;;;18.00;53.90;;;;;;5096110;28;20136;-82
2022/04/12 12:38:20;;;;;;;10.68;7.93;;;18.00;54.30;;;;;;5078508;28;20365;-82
2022/04/12 12:40:47;;;;;;;12.32;7.85;;;18.00;54.70;;;;;;5095147;28;20048;-82
2022/04/12 12:43:14;;;;;;;10.48;8.20;;;17.90;54.40;;;;;;5095780;28;20047;-82
2022/04/12 12:45:46;;;;;;;9.38;7.25;;;17.90;55.00;;;;;;5095976;28;20035;-82
2022/04/12 12:48:15;;;;;;;11.13;7.95;;;17.90;55.70;;;;;;5095392;28;20050;-82